sensor_id;sensor_type;location;lat;lon;timestamp;temperature;humidity
26412;DHT22;59168;;;2022-08-07T00:01:21;13.10;99.90
26412;DHT22;59168;;;2022-08-07T00:03:47;13.10;99.90
26412;DHT22;59168;;;2022-08-07T00:06:14;13.10;99.90
26412;DHT22;59168;;;2022-08-07T00:08:39;13.00;99.90
26412;DHT22;59168;;;2022-08-07T00:11:05;13.00;99.90
26412;DHT22;59168;;;2022-08-07T00:13:32;13.00;99.90
26412;DHT22;59168;;;2022-08-07T00:15:58;13.00;99.90
26412;DHT22;59168;;;2022-08-07T00:18:27;13.00;99.90
26412;DHT22;59168;;;2022-08-07T00:20:55;12.90;99.90
26412;DHT22;59168;;;2022-08-07T00:23:21;12.90;99.90
26412;DHT22;59168;;;2022-08-07T00:25:48;12.90;99.90
26412;DHT22;59168;;;2022-08-07T00:28:14;12.90;99.90
26412;DHT22;59168;;;2022-08-07T00:30:39;12.80;99.90
26412;DHT22;59168;;;2022-08-07T00:33:05;12.80;99.90
26412;DHT22;59168;;;2022-08-07T00:35:31;12.80;99.90
26412;DHT22;59168;;;2022-08-07T00:37:57;12.70;99.90
26412;DHT22;59168;;;2022-08-07T00:40:23;12.70;99.90
26412;DHT22;59168;;;2022-08-07T00:42:48;12.60;99.90
26412;DHT22;59168;;;2022-08-07T00:45:14;12.60;99.90
26412;DHT22;59168;;;2022-08-07T00:47:40;12.60;99.90
26412;DHT22;59168;;;2022-08-07T00:50:06;12.50;99.90
26412;DHT22;59168;;;2022-08-07T00:52:32;12.50;99.90
26412;DHT22;59168;;;2022-08-07T00:54:57;12.40;99.90
26412;DHT22;59168;;;2022-08-07T00:57:24;12.40;99.90
26412;DHT22;59168;;;2022-08-07T00:59:50;12.40;99.90
26412;DHT22;59168;;;2022-08-07T01:02:17;12.30;99.90
26412;DHT22;59168;;;2022-08-07T01:04:43;12.30;99.90
26412;DHT22;59168;;;2022-08-07T01:07:10;12.30;99.90
26412;DHT22;59168;;;2022-08-07T01:09:36;12.30;99.90
26412;DHT22;59168;;;2022-08-07T01:12:02;12.30;99.90
26412;DHT22;59168;;;2022-08-07T01:14:28;12.30;99.90
26412;DHT22;59168;;;2022-08-07T01:16:54;12.20;99.90
26412;DHT22;59168;;;2022-08-07T01:19:20;12.20;99.90
26412;DHT22;59168;;;2022-08-07T01:21:48;12.20;99.90
26412;DHT22;59168;;;2022-08-07T01:24:16;12.20;99.90
26412;DHT22;59168;;;2022-08-07T01:26:42;12.20;99.90
26412;DHT22;59168;;;2022-08-07T01:29:08;12.30;99.90
26412;DHT22;59168;;;2022-08-07T01:31:36;12.20;99.90
26412;DHT22;59168;;;2022-08-07T01:34:02;12.30;99.90
26412;DHT22;59168;;;2022-08-07T01:36:30;12.30;99.90
26412;DHT22;59168;;;2022-08-07T01:38:56;12.30;99.90
26412;DHT22;59168;;;2022-08-07T01:41:23;12.20;99.90
26412;DHT22;59168;;;2022-08-07T01:43:50;12.20;99.90
26412;DHT22;59168;;;2022-08-07T01:46:17;12.10;99.90
26412;DHT22;59168;;;2022-08-07T01:48:44;12.10;99.90
26412;DHT22;59168;;;2022-08-07T01:51:13;12.00;99.90
26412;DHT22;59168;;;2022-08-07T01:53:44;12.00;99.90
26412;DHT22;59168;;;2022-08-07T01:56:16;12.00;99.90
26412;DHT22;59168;;;2022-08-07T01:59:00;12.00;99.90
26412;DHT22;59168;;;2022-08-07T02:01:32;11.90;99.90
26412;DHT22;59168;;;2022-08-07T02:04:05;11.90;99.90
26412;DHT22;59168;;;2022-08-07T02:06:31;11.80;99.90
26412;DHT22;59168;;;2022-08-07T02:09:00;11.70;99.90
26412;DHT22;59168;;;2022-08-07T02:11:26;11.70;99.90
26412;DHT22;59168;;;2022-08-07T02:13:53;11.70;99.90
26412;DHT22;59168;;;2022-08-07T02:16:21;11.70;99.90
26412;DHT22;59168;;;2022-08-07T02:18:49;11.70;99.90
26412;DHT22;59168;;;2022-08-07T02:21:16;11.70;99.90
26412;DHT22;59168;;;2022-08-07T02:23:43;11.60;99.90
26412;DHT22;59168;;;2022-08-07T02:26:09;11.60;99.90
26412;DHT22;59168;;;2022-08-07T02:28:36;11.50;99.90
26412;DHT22;59168;;;2022-08-07T02:31:04;11.50;99.90
26412;DHT22;59168;;;2022-08-07T02:33:31;11.40;99.90
26412;DHT22;59168;;;2022-08-07T02:35:58;11.40;99.90
26412;DHT22;59168;;;2022-08-07T02:38:30;11.40;99.90
26412;DHT22;59168;;;2022-08-07T02:40:57;11.30;99.90
26412;DHT22;59168;;;2022-08-07T02:43:23;11.30;99.90
26412;DHT22;59168;;;2022-08-07T02:45:50;11.30;99.90
26412;DHT22;59168;;;2022-08-07T02:48:17;11.30;99.90
26412;DHT22;59168;;;2022-08-07T02:50:43;11.30;99.90
26412;DHT22;59168;;;2022-08-07T02:53:18;11.40;99.90
26412;DHT22;59168;;;2022-08-07T02:55:45;11.40;99.90
26412;DHT22;59168;;;2022-08-07T02:58:14;11.40;99.90
26412;DHT22;59168;;;2022-08-07T03:00:41;11.40;99.90
26412;DHT22;59168;;;2022-08-07T03:03:08;11.30;99.90
26412;DHT22;59168;;;2022-08-07T03:05:35;11.20;99.90
26412;DHT22;59168;;;2022-08-07T03:08:03;11.20;99.90
26412;DHT22;59168;;;2022-08-07T03:10:30;11.20;99.90
26412;DHT22;59168;;;2022-08-07T03:12:57;11.20;99.90
26412;DHT22;59168;;;2022-08-07T03:15:23;11.20;99.90
26412;DHT22;59168;;;2022-08-07T03:17:50;11.20;99.90
26412;DHT22;59168;;;2022-08-07T03:20:16;11.20;99.90
26412;DHT22;59168;;;2022-08-07T03:22:43;11.20;99.90
26412;DHT22;59168;;;2022-08-07T03:25:10;11.20;99.90
26412;DHT22;59168;;;2022-08-07T03:27:37;11.20;99.90
26412;DHT22;59168;;;2022-08-07T03:30:03;11.10;99.90
26412;DHT22;59168;;;2022-08-07T03:32:36;11.10;99.90
26412;DHT22;59168;;;2022-08-07T03:35:05;11.10;99.90
26412;DHT22;59168;;;2022-08-07T03:37:35;11.00;99.90
26412;DHT22;59168;;;2022-08-07T03:40:03;11.00;99.90
26412;DHT22;59168;;;2022-08-07T03:42:32;11.00;99.90
26412;DHT22;59168;;;2022-08-07T03:44:58;11.00;99.90
26412;DHT22;59168;;;2022-08-07T03:47:26;11.00;99.90
26412;DHT22;59168;;;2022-08-07T03:49:53;11.00;99.90
26412;DHT22;59168;;;2022-08-07T03:52:24;11.00;99.90
26412;DHT22;59168;;;2022-08-07T03:54:50;11.00;99.90
26412;DHT22;59168;;;2022-08-07T03:57:15;11.00;99.90
26412;DHT22;59168;;;2022-08-07T03:59:42;11.00;99.90
26412;DHT22;59168;;;2022-08-07T04:02:08;11.00;99.90
26412;DHT22;59168;;;2022-08-07T04:04:34;11.00;99.90
26412;DHT22;59168;;;2022-08-07T04:07:00;11.00;99.90
26412;DHT22;59168;;;2022-08-07T04:09:27;11.00;99.90
26412;DHT22;59168;;;2022-08-07T04:11:53;11.10;99.90
26412;DHT22;59168;;;2022-08-07T04:14:19;11.10;99.90
26412;DHT22;59168;;;2022-08-07T04:16:46;11.20;99.90
26412;DHT22;59168;;;2022-08-07T04:19:14;11.20;99.90
26412;DHT22;59168;;;2022-08-07T04:21:39;11.30;99.90
26412;DHT22;59168;;;2022-08-07T04:24:06;11.30;99.90
26412;DHT22;59168;;;2022-08-07T04:26:36;11.40;99.90
26412;DHT22;59168;;;2022-08-07T04:29:03;11.40;99.90
26412;DHT22;59168;;;2022-08-07T04:31:30;11.50;99.90
26412;DHT22;59168;;;2022-08-07T04:33:56;11.60;99.90
26412;DHT22;59168;;;2022-08-07T04:36:22;11.70;99.90
26412;DHT22;59168;;;2022-08-07T04:38:48;11.90;99.90
26412;DHT22;59168;;;2022-08-07T04:41:14;12.00;99.90
26412;DHT22;59168;;;2022-08-07T04:43:41;12.30;99.90
26412;DHT22;59168;;;2022-08-07T04:46:10;12.70;99.90
26412;DHT22;59168;;;2022-08-07T04:49:04;13.20;99.90
26412;DHT22;59168;;;2022-08-07T04:54:35;14.70;99.90
26412;DHT22;59168;;;2022-08-07T04:59:52;18.10;99.90
26412;DHT22;59168;;;2022-08-07T05:05:11;21.10;99.90
26412;DHT22;59168;;;2022-08-07T05:10:20;22.90;96.00
26412;DHT22;59168;;;2022-08-07T05:12:55;23.30;94.20
26412;DHT22;59168;;;2022-08-07T05:15:36;23.90;93.10
26412;DHT22;59168;;;2022-08-07T05:18:07;24.40;91.50
26412;DHT22;59168;;;2022-08-07T05:20:44;24.80;90.40
26412;DHT22;59168;;;2022-08-07T05:23:15;24.60;89.20
26412;DHT22;59168;;;2022-08-07T05:25:43;23.90;90.00
26412;DHT22;59168;;;2022-08-07T05:28:09;24.60;87.60
26412;DHT22;59168;;;2022-08-07T05:30:37;24.60;88.40
26412;DHT22;59168;;;2022-08-07T05:33:03;24.60;86.80
26412;DHT22;59168;;;2022-08-07T05:35:33;24.70;84.90
26412;DHT22;59168;;;2022-08-07T05:37:59;25.00;85.40
26412;DHT22;59168;;;2022-08-07T05:40:26;25.20;83.90
26412;DHT22;59168;;;2022-08-07T05:42:53;24.40;81.50
26412;DHT22;59168;;;2022-08-07T05:45:19;24.50;83.70
26412;DHT22;59168;;;2022-08-07T05:47:45;24.90;82.30
26412;DHT22;59168;;;2022-08-07T05:50:12;25.20;81.70
26412;DHT22;59168;;;2022-08-07T05:52:39;24.90;81.30
26412;DHT22;59168;;;2022-08-07T05:55:05;25.40;81.10
26412;DHT22;59168;;;2022-08-07T05:57:33;25.30;80.40
26412;DHT22;59168;;;2022-08-07T06:00:00;24.40;81.50
26412;DHT22;59168;;;2022-08-07T06:02:28;24.50;81.50
26412;DHT22;59168;;;2022-08-07T06:04:58;25.70;79.10
26412;DHT22;59168;;;2022-08-07T06:07:26;26.80;76.70
26412;DHT22;59168;;;2022-08-07T06:09:52;27.70;75.00
26412;DHT22;59168;;;2022-08-07T06:12:18;27.20;74.50
26412;DHT22;59168;;;2022-08-07T06:14:44;27.70;73.90
26412;DHT22;59168;;;2022-08-07T06:17:10;27.00;73.20
26412;DHT22;59168;;;2022-08-07T06:19:39;28.10;73.10
26412;DHT22;59168;;;2022-08-07T06:22:06;28.20;72.40
26412;DHT22;59168;;;2022-08-07T06:24:31;28.30;70.40
26412;DHT22;59168;;;2022-08-07T06:26:57;28.80;69.70
26412;DHT22;59168;;;2022-08-07T06:29:26;30.00;67.60
26412;DHT22;59168;;;2022-08-07T06:31:52;30.00;65.50
26412;DHT22;59168;;;2022-08-07T06:34:18;29.60;65.70
26412;DHT22;59168;;;2022-08-07T06:36:44;29.60;65.00
26412;DHT22;59168;;;2022-08-07T06:39:09;29.10;66.10
26412;DHT22;59168;;;2022-08-07T06:41:42;29.90;64.60
26412;DHT22;59168;;;2022-08-07T06:44:10;28.40;65.10
26412;DHT22;59168;;;2022-08-07T06:46:37;27.90;66.60
26412;DHT22;59168;;;2022-08-07T06:49:04;28.50;64.70
26412;DHT22;59168;;;2022-08-07T06:51:31;28.40;65.80
26412;DHT22;59168;;;2022-08-07T06:53:58;26.60;66.10
26412;DHT22;59168;;;2022-08-07T06:56:28;27.90;67.30
26412;DHT22;59168;;;2022-08-07T06:59:15;28.00;65.20
26412;DHT22;59168;;;2022-08-07T07:01:42;28.50;65.20
26412;DHT22;59168;;;2022-08-07T07:04:09;29.40;62.00
26412;DHT22;59168;;;2022-08-07T07:06:35;30.50;62.90
26412;DHT22;59168;;;2022-08-07T07:09:27;31.40;60.20
26412;DHT22;59168;;;2022-08-07T07:15:02;30.20;60.20
26412;DHT22;59168;;;2022-08-07T07:20:19;29.90;61.40
26412;DHT22;59168;;;2022-08-07T07:22:48;30.80;60.10
26412;DHT22;59168;;;2022-08-07T07:25:15;31.10;60.30
26412;DHT22;59168;;;2022-08-07T07:30:41;30.20;59.70
26412;DHT22;59168;;;2022-08-07T07:33:09;30.00;58.90
26412;DHT22;59168;;;2022-08-07T07:35:36;29.70;60.20
26412;DHT22;59168;;;2022-08-07T07:38:03;31.90;58.80
26412;DHT22;59168;;;2022-08-07T07:40:32;32.70;59.40
26412;DHT22;59168;;;2022-08-07T07:42:59;32.50;57.80
26412;DHT22;59168;;;2022-08-07T07:45:28;32.50;57.50
26412;DHT22;59168;;;2022-08-07T07:47:56;33.00;57.30
26412;DHT22;59168;;;2022-08-07T07:50:23;32.30;56.70
26412;DHT22;59168;;;2022-08-07T07:52:51;32.00;57.10
26412;DHT22;59168;;;2022-08-07T07:55:18;31.40;57.00
26412;DHT22;59168;;;2022-08-07T07:57:46;30.60;58.00
26412;DHT22;59168;;;2022-08-07T08:00:13;30.30;58.80
26412;DHT22;59168;;;2022-08-07T08:02:39;31.60;57.50
26412;DHT22;59168;;;2022-08-07T08:05:09;32.60;56.70
26412;DHT22;59168;;;2022-08-07T08:07:35;32.30;56.30
26412;DHT22;59168;;;2022-08-07T08:10:03;32.00;57.00
26412;DHT22;59168;;;2022-08-07T08:12:32;32.70;56.30
26412;DHT22;59168;;;2022-08-07T08:14:59;34.10;55.60
26412;DHT22;59168;;;2022-08-07T08:17:26;34.80;54.60
26412;DHT22;59168;;;2022-08-07T08:19:55;34.60;53.40
26412;DHT22;59168;;;2022-08-07T08:22:24;35.80;54.30
26412;DHT22;59168;;;2022-08-07T08:25:08;36.20;52.70
26412;DHT22;59168;;;2022-08-07T08:27:55;36.40;52.70
26412;DHT22;59168;;;2022-08-07T08:30:22;37.20;51.90
26412;DHT22;59168;;;2022-08-07T08:32:52;37.00;52.00
26412;DHT22;59168;;;2022-08-07T08:35:23;37.00;51.40
26412;DHT22;59168;;;2022-08-07T08:37:56;37.20;51.50
26412;DHT22;59168;;;2022-08-07T08:40:30;37.40;51.10
26412;DHT22;59168;;;2022-08-07T08:43:17;38.20;49.80
26412;DHT22;59168;;;2022-08-07T08:46:00;36.40;50.60
26412;DHT22;59168;;;2022-08-07T08:48:54;34.30;51.60
26412;DHT22;59168;;;2022-08-07T08:51:24;34.50;51.90
26412;DHT22;59168;;;2022-08-07T08:56:45;31.30;53.70
26412;DHT22;59168;;;2022-08-07T08:59:33;31.20;55.50
26412;DHT22;59168;;;2022-08-07T09:02:33;33.20;53.80
26412;DHT22;59168;;;2022-08-07T09:10:42;37.90;49.50
26412;DHT22;59168;;;2022-08-07T09:16:09;38.20;48.90
26412;DHT22;59168;;;2022-08-07T09:21:35;38.90;48.20
26412;DHT22;59168;;;2022-08-07T09:30:12;37.60;47.50
26412;DHT22;59168;;;2022-08-07T09:36:02;34.50;50.20
26412;DHT22;59168;;;2022-08-07T09:47:28;34.90;49.00
26412;DHT22;59168;;;2022-08-07T09:50:29;34.30;48.70
26412;DHT22;59168;;;2022-08-07T09:53:01;34.40;49.80
26412;DHT22;59168;;;2022-08-07T09:55:55;35.80;48.20
26412;DHT22;59168;;;2022-08-07T10:01:31;33.30;49.80
26412;DHT22;59168;;;2022-08-07T10:04:17;34.90;48.00
26412;DHT22;59168;;;2022-08-07T10:12:46;29.40;52.30
26412;DHT22;59168;;;2022-08-07T10:15:36;28.60;56.60
26412;DHT22;59168;;;2022-08-07T10:24:12;29.60;53.60
26412;DHT22;59168;;;2022-08-07T10:26:54;31.50;53.90
26412;DHT22;59168;;;2022-08-07T10:34:55;36.80;49.00
26412;DHT22;59168;;;2022-08-07T10:37:38;38.00;48.40
26412;DHT22;59168;;;2022-08-07T10:43:05;34.30;48.30
26412;DHT22;59168;;;2022-08-07T10:45:37;36.00;48.20
26412;DHT22;59168;;;2022-08-07T10:51:25;36.30;47.10
26412;DHT22;59168;;;2022-08-07T10:54:14;35.50;47.20
26412;DHT22;59168;;;2022-08-07T11:02:41;33.40;49.30
26412;DHT22;59168;;;2022-08-07T11:10:44;30.00;52.90
26412;DHT22;59168;;;2022-08-07T11:13:37;29.40;53.40
26412;DHT22;59168;;;2022-08-07T11:16:09;30.10;52.50
26412;DHT22;59168;;;2022-08-07T11:18:49;27.80;53.20
26412;DHT22;59168;;;2022-08-07T11:21:41;27.70;54.60
26412;DHT22;59168;;;2022-08-07T11:24:57;27.80;54.90
26412;DHT22;59168;;;2022-08-07T11:27:38;28.90;55.00
26412;DHT22;59168;;;2022-08-07T11:30:06;31.60;53.50
26412;DHT22;59168;;;2022-08-07T11:35:27;32.40;51.20
26412;DHT22;59168;;;2022-08-07T11:40:48;33.70;49.80
26412;DHT22;59168;;;2022-08-07T11:46:01;34.10;48.80
26412;DHT22;59168;;;2022-08-07T11:51:39;31.30;51.10
26412;DHT22;59168;;;2022-08-07T12:08:06;33.40;49.00
26412;DHT22;59168;;;2022-08-07T12:11:14;33.60;48.70
26412;DHT22;59168;;;2022-08-07T12:16:26;33.70;49.00
26412;DHT22;59168;;;2022-08-07T12:19:06;32.80;48.80
26412;DHT22;59168;;;2022-08-07T12:21:57;33.10;49.30
26412;DHT22;59168;;;2022-08-07T12:27:14;33.60;48.30
26412;DHT22;59168;;;2022-08-07T12:30:00;33.80;48.30
26412;DHT22;59168;;;2022-08-07T12:32:33;31.30;53.40
26412;DHT22;59168;;;2022-08-07T12:35:03;31.60;52.20
26412;DHT22;59168;;;2022-08-07T12:37:32;32.60;50.10
26412;DHT22;59168;;;2022-08-07T12:40:01;33.80;48.90
26412;DHT22;59168;;;2022-08-07T12:42:29;33.90;50.30
26412;DHT22;59168;;;2022-08-07T12:44:59;33.70;48.40
26412;DHT22;59168;;;2022-08-07T12:47:40;32.20;49.20
26412;DHT22;59168;;;2022-08-07T12:53:07;29.50;52.90
26412;DHT22;59168;;;2022-08-07T12:56:00;28.80;52.90
26412;DHT22;59168;;;2022-08-07T12:58:34;27.50;54.50
26412;DHT22;59168;;;2022-08-07T13:09:21;26.20;56.80
26412;DHT22;59168;;;2022-08-07T13:11:59;26.60;55.90
26412;DHT22;59168;;;2022-08-07T13:14:49;26.40;55.10
26412;DHT22;59168;;;2022-08-07T13:17:48;26.00;56.40
26412;DHT22;59168;;;2022-08-07T13:20:42;26.00;56.30
26412;DHT22;59168;;;2022-08-07T13:23:18;25.60;57.10
26412;DHT22;59168;;;2022-08-07T13:25:52;25.20;57.10
26412;DHT22;59168;;;2022-08-07T13:28:27;25.20;57.00
26412;DHT22;59168;;;2022-08-07T13:31:16;25.10;58.70
26412;DHT22;59168;;;2022-08-07T13:36:13;25.30;57.50
26412;DHT22;59168;;;2022-08-07T13:39:08;25.10;57.60
26412;DHT22;59168;;;2022-08-07T13:41:44;24.80;58.10
26412;DHT22;59168;;;2022-08-07T13:44:11;24.60;58.40
26412;DHT22;59168;;;2022-08-07T13:46:41;24.50;59.40
26412;DHT22;59168;;;2022-08-07T13:49:10;24.70;58.30
26412;DHT22;59168;;;2022-08-07T13:51:37;24.80;58.20
26412;DHT22;59168;;;2022-08-07T13:54:08;24.60;57.90
26412;DHT22;59168;;;2022-08-07T13:56:36;24.50;58.90
26412;DHT22;59168;;;2022-08-07T13:59:03;24.40;59.50
26412;DHT22;59168;;;2022-08-07T14:01:42;24.70;58.70
26412;DHT22;59168;;;2022-08-07T14:04:15;24.80;58.70
26412;DHT22;59168;;;2022-08-07T14:06:47;25.10;58.10
26412;DHT22;59168;;;2022-08-07T14:09:22;25.40;58.20
26412;DHT22;59168;;;2022-08-07T14:11:51;25.50;57.60
26412;DHT22;59168;;;2022-08-07T14:14:19;25.60;57.60
26412;DHT22;59168;;;2022-08-07T14:16:47;25.60;56.90
26412;DHT22;59168;;;2022-08-07T14:19:17;25.20;56.60
26412;DHT22;59168;;;2022-08-07T14:21:49;24.70;57.50
26412;DHT22;59168;;;2022-08-07T14:24:25;24.40;58.40
26412;DHT22;59168;;;2022-08-07T14:26:58;24.00;58.30
26412;DHT22;59168;;;2022-08-07T14:29:29;23.80;58.80
26412;DHT22;59168;;;2022-08-07T14:32:01;23.80;59.10
26412;DHT22;59168;;;2022-08-07T14:34:30;24.10;58.60
26412;DHT22;59168;;;2022-08-07T14:37:01;24.30;58.80
26412;DHT22;59168;;;2022-08-07T14:39:30;24.50;58.40
26412;DHT22;59168;;;2022-08-07T14:42:00;24.40;58.10
26412;DHT22;59168;;;2022-08-07T14:44:27;24.50;58.50
26412;DHT22;59168;;;2022-08-07T14:46:54;24.50;58.70
26412;DHT22;59168;;;2022-08-07T14:49:28;24.60;58.90
26412;DHT22;59168;;;2022-08-07T14:51:59;24.50;59.30
26412;DHT22;59168;;;2022-08-07T14:54:30;24.10;59.30
26412;DHT22;59168;;;2022-08-07T14:56:56;23.90;59.50
26412;DHT22;59168;;;2022-08-07T14:59:24;23.90;60.30
26412;DHT22;59168;;;2022-08-07T15:01:53;24.10;60.00
26412;DHT22;59168;;;2022-08-07T15:04:20;24.30;59.70
26412;DHT22;59168;;;2022-08-07T15:06:48;24.20;59.30
26412;DHT22;59168;;;2022-08-07T15:09:16;24.00;59.80
26412;DHT22;59168;;;2022-08-07T15:11:49;24.00;59.90
26412;DHT22;59168;;;2022-08-07T15:14:23;23.90;60.10
26412;DHT22;59168;;;2022-08-07T15:16:53;23.80;59.80
26412;DHT22;59168;;;2022-08-07T15:19:24;23.60;60.50
26412;DHT22;59168;;;2022-08-07T15:21:52;23.50;60.30
26412;DHT22;59168;;;2022-08-07T15:24:39;23.50;60.70
26412;DHT22;59168;;;2022-08-07T15:27:16;23.30;60.40
26412;DHT22;59168;;;2022-08-07T15:29:45;23.30;60.70
26412;DHT22;59168;;;2022-08-07T15:32:12;23.30;60.80
26412;DHT22;59168;;;2022-08-07T15:34:46;23.30;60.90
26412;DHT22;59168;;;2022-08-07T15:37:15;23.30;61.20
26412;DHT22;59168;;;2022-08-07T15:39:46;23.30;61.10
26412;DHT22;59168;;;2022-08-07T15:45:05;23.20;60.60
26412;DHT22;59168;;;2022-08-07T15:47:37;23.20;61.10
26412;DHT22;59168;;;2022-08-07T15:50:06;23.40;61.20
26412;DHT22;59168;;;2022-08-07T15:52:35;23.50;61.20
26412;DHT22;59168;;;2022-08-07T15:55:06;23.60;61.80
26412;DHT22;59168;;;2022-08-07T15:57:32;23.60;61.10
26412;DHT22;59168;;;2022-08-07T16:00:00;23.60;61.20
26412;DHT22;59168;;;2022-08-07T16:02:28;23.60;61.20
26412;DHT22;59168;;;2022-08-07T16:04:58;23.70;60.30
26412;DHT22;59168;;;2022-08-07T16:07:30;23.80;60.10
26412;DHT22;59168;;;2022-08-07T16:10:19;23.80;59.80
26412;DHT22;59168;;;2022-08-07T16:13:10;23.80;60.90
26412;DHT22;59168;;;2022-08-07T16:16:32;23.80;60.10
26412;DHT22;59168;;;2022-08-07T16:21:46;23.80;60.50
26412;DHT22;59168;;;2022-08-07T16:24:34;23.70;60.10
26412;DHT22;59168;;;2022-08-07T16:30:08;23.50;59.80
26412;DHT22;59168;;;2022-08-07T16:32:51;23.50;59.80
26412;DHT22;59168;;;2022-08-07T16:35:23;23.40;59.50
26412;DHT22;59168;;;2022-08-07T16:40:53;23.30;59.60
26412;DHT22;59168;;;2022-08-07T16:46:28;23.30;59.80
26412;DHT22;59168;;;2022-08-07T16:54:31;23.40;60.50
26412;DHT22;59168;;;2022-08-07T17:08:00;23.20;60.40
26412;DHT22;59168;;;2022-08-07T17:10:41;23.30;60.50
26412;DHT22;59168;;;2022-08-07T17:16:22;23.30;60.30
26412;DHT22;59168;;;2022-08-07T17:19:02;23.30;60.40
26412;DHT22;59168;;;2022-08-07T17:21:44;23.40;60.20
26412;DHT22;59168;;;2022-08-07T17:32:18;23.50;60.50
26412;DHT22;59168;;;2022-08-07T17:34:51;23.40;60.80
26412;DHT22;59168;;;2022-08-07T17:37:21;23.40;61.10
26412;DHT22;59168;;;2022-08-07T17:40:02;23.30;61.50
26412;DHT22;59168;;;2022-08-07T17:45:16;23.30;61.40
26412;DHT22;59168;;;2022-08-07T17:50:34;23.30;61.70
26412;DHT22;59168;;;2022-08-07T17:55:53;23.20;61.80
26412;DHT22;59168;;;2022-08-07T18:00:57;23.10;62.50
26412;DHT22;59168;;;2022-08-07T18:03:32;23.10;62.50
26412;DHT22;59168;;;2022-08-07T18:06:08;23.00;62.80
26412;DHT22;59168;;;2022-08-07T18:11:26;22.70;63.60
26412;DHT22;59168;;;2022-08-07T18:16:51;22.60;64.30
26412;DHT22;59168;;;2022-08-07T18:22:51;22.30;65.10
26412;DHT22;59168;;;2022-08-07T18:24:46;22.30;65.50
26412;DHT22;59168;;;2022-08-07T18:28:05;22.20;65.80
26412;DHT22;59168;;;2022-08-07T18:30:43;22.10;66.20
26412;DHT22;59168;;;2022-08-07T18:33:48;22.00;66.50
26412;DHT22;59168;;;2022-08-07T18:36:52;21.90;66.80
26412;DHT22;59168;;;2022-08-07T18:39:35;21.80;67.00
26412;DHT22;59168;;;2022-08-07T18:42:33;21.70;67.30
26412;DHT22;59168;;;2022-08-07T18:45:12;21.60;67.70
26412;DHT22;59168;;;2022-08-07T18:47:53;21.50;67.80
26412;DHT22;59168;;;2022-08-07T18:53:13;21.30;68.40
26412;DHT22;59168;;;2022-08-07T18:58:43;21.10;69.20
26412;DHT22;59168;;;2022-08-07T19:03:55;20.90;69.90
26412;DHT22;59168;;;2022-08-07T19:06:42;20.80;70.40
26412;DHT22;59168;;;2022-08-07T19:17:28;20.40;71.60
26412;DHT22;59168;;;2022-08-07T19:20:09;20.20;71.90
26412;DHT22;59168;;;2022-08-07T19:25:24;20.10;72.50
26412;DHT22;59168;;;2022-08-07T19:27:51;20.00;72.90
26412;DHT22;59168;;;2022-08-07T19:30:17;20.00;73.10
26412;DHT22;59168;;;2022-08-07T19:32:45;19.90;73.20
26412;DHT22;59168;;;2022-08-07T19:35:21;19.90;73.30
26412;DHT22;59168;;;2022-08-07T19:37:56;19.90;73.60
26412;DHT22;59168;;;2022-08-07T19:40:24;19.80;74.00
26412;DHT22;59168;;;2022-08-07T19:42:52;19.70;74.60
26412;DHT22;59168;;;2022-08-07T19:45:22;19.60;74.90
26412;DHT22;59168;;;2022-08-07T19:47:51;19.50;74.80
26412;DHT22;59168;;;2022-08-07T19:50:21;19.60;75.00
26412;DHT22;59168;;;2022-08-07T19:52:47;19.50;75.20
26412;DHT22;59168;;;2022-08-07T19:55:17;19.50;75.50
26412;DHT22;59168;;;2022-08-07T19:57:46;19.40;75.50
26412;DHT22;59168;;;2022-08-07T20:00:18;19.40;76.00
26412;DHT22;59168;;;2022-08-07T20:02:50;19.30;76.10
26412;DHT22;59168;;;2022-08-07T20:05:32;19.20;76.60
26412;DHT22;59168;;;2022-08-07T20:08:08;19.10;76.80
26412;DHT22;59168;;;2022-08-07T20:10:36;19.00;77.20
26412;DHT22;59168;;;2022-08-07T20:13:10;19.00;77.70
26412;DHT22;59168;;;2022-08-07T20:15:37;18.90;78.00
26412;DHT22;59168;;;2022-08-07T20:18:05;18.70;78.40
26412;DHT22;59168;;;2022-08-07T20:20:33;18.60;78.70
26412;DHT22;59168;;;2022-08-07T20:23:06;18.60;79.20
26412;DHT22;59168;;;2022-08-07T20:25:32;18.40;79.50
26412;DHT22;59168;;;2022-08-07T20:28:07;18.40;80.00
26412;DHT22;59168;;;2022-08-07T20:30:40;18.30;80.20
26412;DHT22;59168;;;2022-08-07T20:33:07;18.30;80.50
26412;DHT22;59168;;;2022-08-07T20:35:37;18.20;80.70
26412;DHT22;59168;;;2022-08-07T20:38:05;18.10;80.90
26412;DHT22;59168;;;2022-08-07T20:40:39;18.10;81.80
26412;DHT22;59168;;;2022-08-07T20:43:07;18.20;82.00
26412;DHT22;59168;;;2022-08-07T20:45:36;18.20;82.30
26412;DHT22;59168;;;2022-08-07T20:48:04;18.10;82.50
26412;DHT22;59168;;;2022-08-07T20:50:31;18.10;82.70
26412;DHT22;59168;;;2022-08-07T20:52:57;18.10;83.10
26412;DHT22;59168;;;2022-08-07T20:55:23;18.00;83.30
26412;DHT22;59168;;;2022-08-07T20:57:53;18.00;83.60
26412;DHT22;59168;;;2022-08-07T21:00:19;18.00;83.60
26412;DHT22;59168;;;2022-08-07T21:02:52;18.00;84.30
26412;DHT22;59168;;;2022-08-07T21:05:31;18.00;84.50
26412;DHT22;59168;;;2022-08-07T21:07:58;17.90;84.70
26412;DHT22;59168;;;2022-08-07T21:10:27;17.90;85.20
26412;DHT22;59168;;;2022-08-07T21:12:55;17.80;85.70
26412;DHT22;59168;;;2022-08-07T21:15:23;17.80;86.20
26412;DHT22;59168;;;2022-08-07T21:17:51;17.70;85.90
26412;DHT22;59168;;;2022-08-07T21:20:20;17.80;86.10
26412;DHT22;59168;;;2022-08-07T21:22:49;17.70;86.30
26412;DHT22;59168;;;2022-08-07T21:30:28;17.40;88.40
26412;DHT22;59168;;;2022-08-07T21:33:14;17.40;88.30
26412;DHT22;59168;;;2022-08-07T21:36:01;17.20;89.00
26412;DHT22;59168;;;2022-08-07T21:38:45;17.20;89.80
26412;DHT22;59168;;;2022-08-07T21:41:36;17.10;89.60
26412;DHT22;59168;;;2022-08-07T21:44:13;17.00;89.90
26412;DHT22;59168;;;2022-08-07T21:46:44;16.80;90.20
26412;DHT22;59168;;;2022-08-07T21:49:39;16.70;90.30
26412;DHT22;59168;;;2022-08-07T21:57:54;16.60;90.90
26412;DHT22;59168;;;2022-08-07T22:00:25;16.70;91.00
26412;DHT22;59168;;;2022-08-07T22:05:31;16.70;91.10
26412;DHT22;59168;;;2022-08-07T22:07:59;16.70;91.40
26412;DHT22;59168;;;2022-08-07T22:10:31;16.60;91.60
26412;DHT22;59168;;;2022-08-07T22:12:59;16.50;91.70
26412;DHT22;59168;;;2022-08-07T22:15:40;16.50;92.00
26412;DHT22;59168;;;2022-08-07T22:18:24;16.40;93.00
26412;DHT22;59168;;;2022-08-07T22:23:56;16.40;94.70
26412;DHT22;59168;;;2022-08-07T22:29:07;16.30;94.90
26412;DHT22;59168;;;2022-08-07T22:31:55;16.20;94.90
26412;DHT22;59168;;;2022-08-07T22:34:44;16.20;95.10
26412;DHT22;59168;;;2022-08-07T22:37:39;16.10;95.20
26412;DHT22;59168;;;2022-08-07T22:42:42;16.00;95.90
26412;DHT22;59168;;;2022-08-07T22:45:12;16.00;96.50
26412;DHT22;59168;;;2022-08-07T22:48:07;16.00;97.10
26412;DHT22;59168;;;2022-08-07T22:50:57;16.00;97.00
26412;DHT22;59168;;;2022-08-07T22:59:37;16.10;97.30
26412;DHT22;59168;;;2022-08-07T23:02:22;15.90;97.50
26412;DHT22;59168;;;2022-08-07T23:10:16;15.90;98.90
26412;DHT22;59168;;;2022-08-07T23:40:25;15.40;99.90
26412;DHT22;59168;;;2022-08-07T23:43:21;15.30;99.90
26412;DHT22;59168;;;2022-08-07T23:51:34;15.20;99.90
26412;DHT22;59168;;;2022-08-07T23:54:23;15.30;99.90
26412;DHT22;59168;;;2022-08-07T23:57:21;15.20;99.90
